Time;durP1;ratioP1;P1;durP2;ratioP2;P2;SDS_P1;SDS_P2;PMS_P1;PMS_P2;Temp;Humidity;BMP_temperature;BMP_pressure;BME280_temperature;BME280_humidity;BME280_pressure;Samples;Min_cycle;Max_cycle;Signal;HPM_P1;HPM_P2
2022/07/05 00:02:33;;;;;;;3.00;1.50;;;16.50;83.50;;;;;;5028851;28;20826;-70
2022/07/05 00:05:19;;;;;;;3.70;1.60;;;16.60;82.90;;;;;;5019329;28;20823;-69
2022/07/05 00:08:06;;;;;;;2.57;1.30;;;16.60;83.30;;;;;;5018922;28;20794;-69
2022/07/05 00:10:53;;;;;;;5.53;1.20;;;16.60;83.20;;;;;;5042301;28;20620;-70
2022/07/05 00:13:38;;;;;;;3.60;1.20;;;16.60;83.20;;;;;;5034181;28;20772;-69
2022/07/05 00:16:24;;;;;;;4.67;1.30;;;16.50;83.50;;;;;;5028463;28;20441;-69
2022/07/05 00:19:10;;;;;;;3.40;1.57;;;16.50;84.30;;;;;;5025763;28;22109;-69
2022/07/05 00:21:55;;;;;;;4.97;2.33;;;16.40;84.50;;;;;;5023266;28;20477;-69
2022/07/05 00:24:41;;;;;;;3.03;1.10;;;16.40;84.80;;;;;;5021026;28;20461;-69
2022/07/05 00:27:28;;;;;;;6.70;1.60;;;16.40;84.00;;;;;;5029646;28;20978;-69
2022/07/05 00:30:15;;;;;;;2.20;1.50;;;16.30;84.90;;;;;;5026191;28;20455;-69
2022/07/05 00:33:00;;;;;;;2.67;1.40;;;16.20;85.30;;;;;;5020768;28;20469;-69
2022/07/05 00:35:46;;;;;;;2.00;1.30;;;16.20;86.30;;;;;;5025968;28;20480;-69
2022/07/05 00:38:32;;;;;;;1.90;1.20;;;16.20;86.20;;;;;;5026051;28;20418;-69
2022/07/05 00:41:17;;;;;;;2.90;1.50;;;16.20;87.00;;;;;;5025850;28;20479;-69
2022/07/05 00:44:06;;;;;;;2.70;1.50;;;16.20;87.20;;;;;;5026444;28;20441;-69
2022/07/05 00:46:52;;;;;;;7.53;1.47;;;16.20;87.10;;;;;;5024563;28;20571;-69
2022/07/05 00:49:39;;;;;;;7.43;1.47;;;16.20;87.20;;;;;;5026396;28;20795;-69
2022/07/05 00:52:25;;;;;;;3.20;1.50;;;16.20;86.90;;;;;;5026020;28;21075;-69
2022/07/05 00:55:10;;;;;;;3.97;1.50;;;16.30;87.10;;;;;;5020368;28;20456;-69
2022/07/05 00:57:56;;;;;;;2.40;1.20;;;16.30;86.50;;;;;;5025964;28;20445;-69
2022/07/05 01:00:43;;;;;;;2.10;1.20;;;16.30;86.60;;;;;;5021866;28;20484;-69
2022/07/05 01:03:29;;;;;;;1.90;1.50;;;16.30;87.00;;;;;;5027925;28;20445;-69
2022/07/05 01:06:17;;;;;;;3.10;1.60;;;16.20;87.20;;;;;;5025396;28;20580;-70
2022/07/05 01:09:03;;;;;;;3.93;1.30;;;16.20;87.40;;;;;;5026845;28;20457;-69
2022/07/05 01:11:50;;;;;;;2.13;1.20;;;16.30;86.90;;;;;;5023345;28;20456;-69
2022/07/05 01:14:36;;;;;;;2.10;1.30;;;16.20;87.00;;;;;;5034829;28;20543;-72
2022/07/05 01:17:24;;;;;;;3.33;1.70;;;16.30;87.40;;;;;;5031031;28;20443;-70
2022/07/05 01:20:10;;;;;;;5.30;2.10;;;16.50;87.10;;;;;;5042742;28;20409;-71
2022/07/05 01:22:59;;;;;;;3.87;2.50;;;16.60;86.50;;;;;;5032703;28;20519;-70
2022/07/05 01:25:47;;;;;;;3.53;1.57;;;16.50;86.00;;;;;;5031232;28;20562;-70
2022/07/05 01:28:32;;;;;;;2.63;1.23;;;16.30;86.10;;;;;;5025628;28;20817;-71
2022/07/05 01:31:18;;;;;;;3.97;2.00;;;16.20;86.90;;;;;;5031385;28;20551;-70
2022/07/05 01:34:04;;;;;;;4.77;1.40;;;16.00;86.50;;;;;;5032188;28;20483;-71
2022/07/05 01:36:50;;;;;;;3.57;2.20;;;15.90;87.50;;;;;;5026940;28;20424;-69
2022/07/05 01:39:38;;;;;;;7.10;1.87;;;15.90;88.20;;;;;;5023199;28;20448;-71
2022/07/05 01:42:23;;;;;;;5.90;1.80;;;16.00;88.50;;;;;;5024158;28;20822;-71
2022/07/05 01:45:10;;;;;;;2.20;1.10;;;15.90;88.80;;;;;;5028233;28;20449;-71
2022/07/05 01:47:56;;;;;;;2.23;1.50;;;15.80;89.50;;;;;;5021495;28;20444;-69
2022/07/05 01:50:45;;;;;;;4.13;1.60;;;15.60;89.30;;;;;;5028237;28;20444;-70
2022/07/05 01:53:32;;;;;;;2.23;1.33;;;15.50;90.30;;;;;;5021077;28;20531;-71
2022/07/05 01:56:20;;;;;;;3.30;1.40;;;15.60;91.00;;;;;;5025779;28;20445;-70
2022/07/05 01:59:06;;;;;;;2.20;1.23;;;15.70;91.30;;;;;;5021904;28;20441;-70
2022/07/05 02:01:52;;;;;;;3.50;1.50;;;16.00;90.90;;;;;;5023699;28;20863;-71
2022/07/05 02:04:38;;;;;;;5.77;1.77;;;16.00;90.80;;;;;;5026674;28;20542;-72
2022/07/05 02:07:23;;;;;;;1.90;1.03;;;15.90;90.80;;;;;;5035575;28;20520;-71
2022/07/05 02:10:09;;;;;;;2.23;1.10;;;15.80;90.50;;;;;;5031007;28;20457;-71
2022/07/05 02:12:56;;;;;;;5.50;1.30;;;15.70;90.80;;;;;;5025379;28;20457;-71
2022/07/05 02:15:42;;;;;;;5.43;1.80;;;15.80;90.70;;;;;;5025234;28;20444;-69
2022/07/05 02:18:28;;;;;;;2.50;1.37;;;15.70;90.80;;;;;;5025027;28;20447;-71
2022/07/05 02:21:13;;;;;;;2.97;1.77;;;15.70;90.90;;;;;;5024697;28;20569;-71
2022/07/05 02:23:59;;;;;;;2.93;1.57;;;15.60;91.10;;;;;;5022760;28;20437;-71
2022/07/05 02:26:45;;;;;;;2.03;1.17;;;15.60;91.10;;;;;;5026297;28;20422;-71
2022/07/05 02:29:32;;;;;;;3.80;1.73;;;15.60;91.10;;;;;;5032721;28;20443;-71
2022/07/05 02:32:18;;;;;;;2.50;1.60;;;15.70;91.20;;;;;;5028312;28;20467;-71
2022/07/05 02:35:04;;;;;;;3.83;1.60;;;15.80;91.00;;;;;;5023584;28;20419;-71
2022/07/05 02:37:49;;;;;;;5.83;2.07;;;15.70;91.10;;;;;;5025651;28;20453;-71
2022/07/05 02:40:35;;;;;;;3.60;1.67;;;15.70;91.20;;;;;;5025951;28;20449;-71
2022/07/05 02:43:20;;;;;;;2.43;1.57;;;15.70;91.20;;;;;;5023219;28;20984;-71
2022/07/05 02:46:09;;;;;;;5.17;1.40;;;15.60;91.30;;;;;;5023549;28;20449;-71
2022/07/05 02:48:55;;;;;;;3.27;1.50;;;15.40;91.30;;;;;;5027352;28;20825;-70
2022/07/05 02:51:41;;;;;;;2.80;1.50;;;15.20;92.20;;;;;;5024621;28;20463;-71
2022/07/05 02:54:26;;;;;;;5.17;2.03;;;15.00;93.00;;;;;;5019749;28;20419;-71
2022/07/05 02:57:11;;;;;;;4.43;1.87;;;15.00;93.80;;;;;;5028281;28;20530;-71
2022/07/05 02:59:57;;;;;;;6.83;1.63;;;15.00;93.80;;;;;;5028796;28;20524;-71
2022/07/05 03:02:44;;;;;;;2.83;1.43;;;15.00;94.30;;;;;;5031235;28;20524;-70
2022/07/05 03:05:30;;;;;;;8.60;1.57;;;15.00;94.30;;;;;;5027605;28;20459;-70
2022/07/05 03:08:16;;;;;;;2.90;1.50;;;14.90;94.50;;;;;;5032505;28;20452;-71
2022/07/05 03:11:02;;;;;;;5.17;1.90;;;14.90;94.70;;;;;;5026175;28;20666;-71
2022/07/05 03:13:48;;;;;;;2.03;1.40;;;14.90;94.90;;;;;;5027250;28;20822;-71
2022/07/05 03:16:33;;;;;;;4.23;1.80;;;15.00;94.80;;;;;;5031530;28;20418;-71
2022/07/05 03:19:20;;;;;;;2.50;1.63;;;15.00;94.50;;;;;;5039845;28;20420;-71
2022/07/05 03:22:06;;;;;;;3.70;1.57;;;14.90;94.70;;;;;;5034384;28;20578;-71
2022/07/05 03:24:52;;;;;;;2.63;1.40;;;14.90;95.10;;;;;;5031765;28;20448;-71
2022/07/05 03:27:37;;;;;;;3.37;1.40;;;14.90;95.10;;;;;;5042348;28;20435;-71
2022/07/05 03:30:23;;;;;;;2.40;1.30;;;15.00;94.90;;;;;;5033972;28;20803;-70
2022/07/05 03:33:09;;;;;;;6.90;2.17;;;14.90;94.90;;;;;;5022328;28;20477;-70
2022/07/05 03:35:56;;;;;;;7.60;1.60;;;15.00;94.70;;;;;;5028139;28;20445;-71
2022/07/05 03:38:41;;;;;;;2.70;1.70;;;15.10;94.80;;;;;;5026193;28;20443;-71
2022/07/05 03:41:27;;;;;;;4.00;1.50;;;15.10;94.70;;;;;;5029455;28;20930;-71
2022/07/05 03:44:13;;;;;;;3.73;1.43;;;15.10;94.70;;;;;;5024180;28;20461;-71
2022/07/05 03:46:59;;;;;;;4.43;1.87;;;15.00;94.60;;;;;;5025054;28;20572;-71
2022/07/05 03:49:44;;;;;;;2.30;1.60;;;15.10;94.80;;;;;;5026166;28;20529;-71
2022/07/05 03:52:31;;;;;;;4.83;1.70;;;15.00;94.80;;;;;;5025890;28;20468;-70
2022/07/05 03:55:17;;;;;;;4.80;1.93;;;15.30;95.00;;;;;;5024698;28;20444;-70
2022/07/05 03:58:03;;;;;;;4.90;1.70;;;15.40;94.90;;;;;;5027167;28;20481;-71
2022/07/05 04:00:48;;;;;;;6.23;2.37;;;15.30;94.70;;;;;;5027135;28;20507;-71
2022/07/05 04:03:34;;;;;;;5.87;1.80;;;15.20;94.70;;;;;;5024963;28;20525;-71
2022/07/05 04:06:20;;;;;;;2.60;1.63;;;15.00;94.90;;;;;;5024382;28;20515;-71
2022/07/05 04:09:07;;;;;;;2.80;1.80;;;14.90;95.40;;;;;;5023347;28;20414;-71
2022/07/05 04:11:53;;;;;;;3.03;1.57;;;14.80;96.50;;;;;;5026757;28;20507;-70
2022/07/05 04:14:39;;;;;;;4.60;1.50;;;14.90;97.10;;;;;;5027872;28;20428;-71
2022/07/05 04:17:25;;;;;;;2.47;1.70;;;14.80;97.40;;;;;;5029449;28;20464;-71
2022/07/05 04:20:11;;;;;;;3.70;1.47;;;14.80;98.20;;;;;;5035286;28;20448;-71
2022/07/05 04:22:57;;;;;;;2.50;1.80;;;14.90;98.30;;;;;;5027608;28;20472;-70
2022/07/05 04:25:44;;;;;;;11.60;1.67;;;14.80;98.70;;;;;;5024035;28;20529;-71
2022/07/05 04:28:30;;;;;;;4.60;1.77;;;14.80;99.20;;;;;;5038863;28;20415;-71
2022/07/05 04:31:16;;;;;;;5.60;2.10;;;14.90;99.50;;;;;;5033428;28;20419;-71
2022/07/05 04:34:02;;;;;;;2.73;1.43;;;15.10;99.40;;;;;;5027193;28;20748;-71
2022/07/05 04:36:47;;;;;;;2.63;1.70;;;15.10;99.20;;;;;;5027759;28;20418;-71
2022/07/05 04:39:33;;;;;;;1.90;1.50;;;15.20;99.10;;;;;;5027219;28;20497;-70
2022/07/05 04:42:20;;;;;;;3.50;1.70;;;15.20;99.10;;;;;;5025659;28;20543;-71
2022/07/05 04:45:07;;;;;;;7.70;1.90;;;15.30;99.30;;;;;;5025549;28;20415;-71
2022/07/05 04:47:52;;;;;;;4.17;1.20;;;15.50;99.20;;;;;;5035427;28;20480;-71
2022/07/05 04:50:38;;;;;;;2.67;1.57;;;15.40;99.30;;;;;;5034523;28;20439;-71
2022/07/05 04:53:24;;;;;;;2.47;1.37;;;15.60;98.80;;;;;;5019740;28;20455;-71
2022/07/05 04:56:10;;;;;;;2.57;1.63;;;15.80;98.70;;;;;;5025315;28;20424;-71
2022/07/05 04:58:57;;;;;;;6.73;1.60;;;15.80;98.70;;;;;;5023494;28;20448;-70
2022/07/05 05:01:42;;;;;;;8.57;1.93;;;16.00;98.40;;;;;;5021410;28;20472;-70
2022/07/05 05:04:28;;;;;;;3.10;2.27;;;16.10;98.10;;;;;;5031728;28;20550;-71
2022/07/05 05:07:14;;;;;;;2.50;1.80;;;16.10;97.50;;;;;;5036776;28;20455;-71
2022/07/05 05:09:59;;;;;;;3.13;1.73;;;16.20;97.50;;;;;;5036931;28;20973;-71
2022/07/05 05:12:45;;;;;;;3.30;1.80;;;16.30;97.20;;;;;;5025900;28;20451;-71
2022/07/05 05:15:32;;;;;;;2.50;1.57;;;16.40;97.00;;;;;;5035069;28;20521;-71
2022/07/05 05:18:21;;;;;;;3.03;1.83;;;16.50;97.30;;;;;;5034329;28;20428;-71
2022/07/05 05:21:06;;;;;;;3.70;1.50;;;16.70;97.40;;;;;;5034761;28;20815;-71
2022/07/05 05:23:51;;;;;;;6.20;1.77;;;16.80;97.20;;;;;;5025929;28;20456;-71
2022/07/05 05:26:37;;;;;;;4.13;1.70;;;17.10;97.20;;;;;;5030213;28;20443;-71
2022/07/05 05:29:22;;;;;;;3.80;1.37;;;17.20;96.80;;;;;;5037661;28;20583;-71
2022/07/05 05:32:09;;;;;;;4.20;1.57;;;17.30;96.50;;;;;;5022745;28;20556;-71
2022/07/05 05:34:55;;;;;;;2.63;1.70;;;17.50;96.10;;;;;;5025071;28;21016;-72
2022/07/05 05:37:49;;;;;;;2.70;1.60;;;17.60;95.90;;;;;;5030393;28;21260;-72
2022/07/05 05:40:37;;;;;;;3.83;1.90;;;17.60;95.40;;;;;;5031571;28;21066;-72
2022/07/05 05:43:23;;;;;;;4.10;2.00;;;17.70;95.10;;;;;;5029958;28;20484;-72
2022/07/05 05:46:09;;;;;;;4.73;1.30;;;17.90;94.40;;;;;;5038882;28;20929;-72
2022/07/05 05:48:56;;;;;;;4.20;1.43;;;18.00;94.20;;;;;;5036885;28;20424;-72
2022/07/05 05:51:42;;;;;;;5.37;1.43;;;18.20;94.10;;;;;;5026884;28;20464;-72
2022/07/05 05:54:27;;;;;;;3.37;1.53;;;18.10;94.30;;;;;;5027314;28;20567;-72
2022/07/05 05:57:13;;;;;;;4.00;1.50;;;18.30;94.10;;;;;;5031312;28;20963;-72
2022/07/05 05:59:59;;;;;;;3.93;1.60;;;18.40;93.70;;;;;;5031340;28;20426;-72
2022/07/05 06:02:45;;;;;;;7.20;1.53;;;18.50;94.00;;;;;;5025366;28;20533;-72
2022/07/05 06:05:32;;;;;;;4.17;1.80;;;18.60;93.40;;;;;;5034682;28;20428;-72
2022/07/05 06:08:18;;;;;;;4.43;1.97;;;18.70;93.50;;;;;;5032492;28;20785;-72
2022/07/05 06:11:04;;;;;;;3.97;1.53;;;18.80;93.60;;;;;;5026464;28;20444;-72
2022/07/05 06:13:50;;;;;;;8.50;1.60;;;19.00;93.40;;;;;;5031538;28;20804;-73
2022/07/05 06:16:36;;;;;;;14.00;2.00;;;19.10;93.80;;;;;;5028742;28;20444;-72
2022/07/05 06:19:22;;;;;;;3.30;1.43;;;19.20;92.50;;;;;;5028142;28;20441;-72
2022/07/05 06:22:09;;;;;;;4.70;2.10;;;19.40;91.30;;;;;;5027029;28;20616;-72
2022/07/05 06:24:54;;;;;;;4.13;1.77;;;19.40;89.00;;;;;;5024485;28;20440;-72
2022/07/05 06:27:40;;;;;;;3.00;1.80;;;19.50;83.50;;;;;;5025091;28;20535;-72
2022/07/05 06:30:27;;;;;;;4.33;1.80;;;19.60;79.80;;;;;;5021628;28;20619;-73
2022/07/05 06:33:13;;;;;;;2.90;1.70;;;19.70;78.40;;;;;;5038109;28;20821;-72
2022/07/05 06:35:59;;;;;;;3.83;1.47;;;19.80;77.90;;;;;;5031402;28;20554;-72
2022/07/05 06:38:46;;;;;;;3.10;1.57;;;19.90;78.40;;;;;;5031086;28;20577;-72
2022/07/05 06:41:32;;;;;;;3.83;1.90;;;20.10;78.10;;;;;;5029231;28;20824;-72
2022/07/05 06:44:17;;;;;;;2.40;2.00;;;20.20;77.50;;;;;;5042726;28;20425;-72
2022/07/05 06:47:03;;;;;;;5.10;1.50;;;20.40;77.20;;;;;;5030685;28;20457;-72
2022/07/05 06:49:49;;;;;;;2.10;1.37;;;20.50;75.30;;;;;;5028162;28;20522;-72
2022/07/05 06:52:35;;;;;;;5.70;1.50;;;20.50;72.90;;;;;;5027593;28;20460;-72
2022/07/05 06:55:22;;;;;;;3.13;1.83;;;20.60;75.90;;;;;;5032969;28;20415;-72
2022/07/05 06:58:09;;;;;;;2.10;1.47;;;20.60;74.20;;;;;;5033278;28;20441;-72
2022/07/05 07:00:55;;;;;;;7.17;1.77;;;20.70;72.90;;;;;;5022493;28;20449;-72
2022/07/05 07:03:41;;;;;;;2.50;1.60;;;20.80;71.40;;;;;;5035373;28;20539;-73
2022/07/05 07:06:26;;;;;;;2.50;1.30;;;20.80;66.40;;;;;;5032887;28;20510;-72
2022/07/05 07:09:21;;;;;;;5.20;1.73;;;20.90;66.80;;;;;;5038393;28;20428;-73
2022/07/05 07:12:09;;;;;;;3.53;1.70;;;21.10;68.70;;;;;;5029699;28;20472;-73
2022/07/05 07:14:55;;;;;;;2.73;1.70;;;21.20;69.00;;;;;;5036626;28;20967;-73
2022/07/05 07:17:41;;;;;;;2.83;1.60;;;21.30;66.90;;;;;;5036095;28;20402;-73
2022/07/05 07:20:27;;;;;;;6.30;1.80;;;21.50;66.60;;;;;;5025971;28;21027;-73
2022/07/05 07:23:13;;;;;;;4.20;1.80;;;21.50;64.40;;;;;;5034246;28;21075;-73
2022/07/05 07:25:59;;;;;;;5.20;1.70;;;21.60;64.20;;;;;;5023321;28;20514;-73
2022/07/05 07:28:46;;;;;;;10.40;1.40;;;21.70;63.30;;;;;;5027286;28;20436;-72
2022/07/05 07:31:32;;;;;;;5.70;1.57;;;21.80;63.60;;;;;;5021413;28;21019;-72
2022/07/05 07:34:17;;;;;;;3.83;1.70;;;21.90;61.90;;;;;;5025260;28;21095;-73
2022/07/05 07:37:04;;;;;;;2.70;1.33;;;21.90;55.90;;;;;;5028841;28;20460;-72
2022/07/05 07:39:49;;;;;;;3.60;1.60;;;22.10;54.80;;;;;;5033908;28;20448;-72
2022/07/05 07:42:35;;;;;;;3.30;1.60;;;22.20;51.70;;;;;;5018903;28;20476;-72
2022/07/05 07:45:22;;;;;;;5.70;1.60;;;22.30;52.40;;;;;;5027308;28;20440;-72
2022/07/05 07:48:07;;;;;;;4.67;1.50;;;22.40;52.60;;;;;;5031610;28;20813;-73
2022/07/05 07:50:53;;;;;;;2.73;1.30;;;22.40;46.60;;;;;;5029699;28;20605;-73
2022/07/05 07:53:39;;;;;;;2.70;1.70;;;22.50;48.50;;;;;;5028321;28;20527;-73
2022/07/05 07:56:24;;;;;;;2.80;1.40;;;22.60;48.80;;;;;;5032501;28;20430;-72
2022/07/05 07:59:11;;;;;;;4.30;1.53;;;22.70;46.50;;;;;;5026906;28;20452;-73
2022/07/05 08:01:58;;;;;;;3.93;1.50;;;22.80;45.80;;;;;;5031496;28;20849;-73
2022/07/05 08:04:43;;;;;;;2.77;1.23;;;22.90;45.20;;;;;;5030760;28;20849;-72
2022/07/05 08:07:29;;;;;;;3.17;1.53;;;23.00;44.40;;;;;;5030653;28;20494;-72
2022/07/05 08:10:14;;;;;;;4.70;1.73;;;23.00;44.40;;;;;;5026337;28;20440;-73
2022/07/05 08:13:00;;;;;;;321.83;21.13;;;23.10;46.40;;;;;;5037427;28;20471;-72
2022/07/05 08:15:45;;;;;;;98.40;7.27;;;23.00;48.10;;;;;;5034377;28;20471;-72
2022/07/05 08:21:37;;;;;;;4.87;1.90;;;23.10;48.80;;;;;;5033092;28;20439;-73
2022/07/05 08:24:22;;;;;;;12.50;1.90;;;23.00;51.00;;;;;;5030304;28;20844;-72
2022/07/05 08:27:08;;;;;;;6.80;1.60;;;23.00;48.30;;;;;;5030727;28;20437;-72
2022/07/05 08:29:54;;;;;;;3.67;1.60;;;23.00;52.00;;;;;;5025369;28;20448;-73
2022/07/05 08:32:41;;;;;;;3.23;1.60;;;23.10;51.00;;;;;;5027750;28;20476;-72
2022/07/05 08:35:28;;;;;;;3.10;1.63;;;23.20;50.80;;;;;;5034664;28;20461;-72
2022/07/05 08:38:13;;;;;;;2.93;1.83;;;23.20;46.50;;;;;;5027909;28;20824;-73
2022/07/05 08:41:00;;;;;;;3.30;1.70;;;23.20;43.60;;;;;;5026978;28;20456;-73
2022/07/05 08:43:47;;;;;;;4.53;2.00;;;23.20;43.00;;;;;;5033829;28;20490;-73
2022/07/05 08:46:33;;;;;;;5.53;2.10;;;23.30;41.40;;;;;;5027458;28;20583;-73
2022/07/05 08:49:24;;;;;;;4.47;1.53;;;23.30;40.90;;;;;;5032107;28;20451;-72
2022/07/05 08:52:14;;;;;;;5.97;1.93;;;23.50;43.30;;;;;;5031581;28;20464;-73
2022/07/05 08:55:00;;;;;;;3.50;1.53;;;23.50;39.10;;;;;;5028217;28;20802;-72
2022/07/05 08:57:46;;;;;;;3.97;1.60;;;23.50;40.10;;;;;;5030788;28;20448;-73
2022/07/05 09:00:31;;;;;;;2.57;1.43;;;23.50;38.50;;;;;;5030749;28;20448;-71
2022/07/05 09:03:19;;;;;;;4.37;1.30;;;23.50;37.90;;;;;;5037151;28;20564;-72
2022/07/05 09:06:09;;;;;;;4.30;1.53;;;23.60;39.90;;;;;;5035869;28;20455;-72
2022/07/05 09:08:56;;;;;;;3.00;1.60;;;23.70;39.20;;;;;;5031701;28;20470;-72
2022/07/05 09:11:42;;;;;;;2.33;1.30;;;23.50;36.20;;;;;;5044917;28;20442;-73
2022/07/05 09:14:28;;;;;;;2.73;1.33;;;23.50;38.60;;;;;;5033767;28;20435;-72
2022/07/05 09:17:14;;;;;;;3.50;1.27;;;23.50;37.10;;;;;;5036205;28;20455;-72
2022/07/05 09:20:11;;;;;;;5.30;1.30;;;23.60;35.60;;;;;;5032790;28;20455;-72
2022/07/05 09:22:57;;;;;;;1.73;0.90;;;23.60;35.40;;;;;;5024985;28;20893;-72
2022/07/05 09:25:45;;;;;;;3.37;1.40;;;23.70;34.20;;;;;;5028216;28;20472;-72
2022/07/05 09:28:30;;;;;;;2.63;1.30;;;23.90;34.90;;;;;;5034163;28;20597;-72
2022/07/05 09:31:27;;;;;;;2.53;1.10;;;24.10;36.60;;;;;;5032844;28;20439;-72
2022/07/05 09:34:15;;;;;;;3.27;1.10;;;24.20;33.60;;;;;;5032640;28;20461;-72
2022/07/05 09:37:02;;;;;;;5.77;1.23;;;24.20;30.40;;;;;;5033719;28;20814;-72
2022/07/05 09:39:48;;;;;;;4.40;1.37;;;24.10;33.20;;;;;;5025584;28;20509;-72
2022/07/05 09:42:35;;;;;;;2.53;1.33;;;24.10;31.30;;;;;;5029389;28;20704;-72
2022/07/05 09:45:24;;;;;;;7.97;1.40;;;24.20;32.20;;;;;;5030901;28;20554;-72
2022/07/05 09:48:10;;;;;;;2.27;1.13;;;24.10;29.80;;;;;;5027218;28;22218;-72
2022/07/05 09:51:06;;;;;;;6.70;1.27;;;23.90;32.30;;;;;;5027996;28;20444;-72
2022/07/05 09:53:54;;;;;;;5.67;1.80;;;23.80;31.00;;;;;;5028595;28;20436;-72
2022/07/05 09:56:47;;;;;;;4.80;1.17;;;23.90;30.40;;;;;;5024465;28;20479;-72
2022/07/05 09:59:34;;;;;;;3.37;1.77;;;24.10;33.00;;;;;;5025201;28;20497;-72
2022/07/05 10:02:35;;;;;;;3.17;1.40;;;24.30;30.90;;;;;;5033641;28;20464;-72
2022/07/05 10:05:22;;;;;;;4.23;1.10;;;24.40;31.50;;;;;;5028983;28;20440;-72
2022/07/05 10:08:08;;;;;;;4.03;1.37;;;24.50;31.90;;;;;;5025556;28;20486;-72
2022/07/05 10:10:54;;;;;;;3.00;1.37;;;24.70;30.20;;;;;;5030553;28;20455;-72
2022/07/05 10:13:42;;;;;;;2.30;1.23;;;24.80;30.30;;;;;;5027112;28;20492;-72
2022/07/05 10:16:29;;;;;;;7.07;1.70;;;24.80;30.10;;;;;;5030518;28;20567;-71
2022/07/05 10:19:19;;;;;;;3.00;1.13;;;24.80;29.90;;;;;;5031590;28;20452;-71
2022/07/05 10:22:06;;;;;;;7.07;1.40;;;24.80;30.30;;;;;;5044180;28;20457;-72
2022/07/05 10:24:54;;;;;;;3.80;1.37;;;24.90;30.80;;;;;;5036786;28;20600;-72
2022/07/05 10:27:40;;;;;;;3.80;1.27;;;25.10;30.00;;;;;;5038522;28;20463;-72
2022/07/05 10:30:27;;;;;;;4.30;1.20;;;25.30;29.50;;;;;;5042908;28;20431;-72
2022/07/05 10:33:15;;;;;;;5.03;1.77;;;25.20;29.20;;;;;;5038808;28;20449;-71
2022/07/05 10:36:02;;;;;;;4.07;0.87;;;25.20;30.20;;;;;;5042571;28;20479;-72
2022/07/05 10:38:48;;;;;;;2.30;1.20;;;25.30;29.20;;;;;;5030072;28;20494;-72
2022/07/05 10:41:34;;;;;;;4.33;1.50;;;25.50;29.40;;;;;;5038119;28;20952;-72
2022/07/05 10:44:27;;;;;;;2.47;1.20;;;25.40;28.30;;;;;;5046165;28;21027;-72
2022/07/05 10:47:14;;;;;;;2.77;1.40;;;25.20;25.60;;;;;;5038588;28;20445;-72
2022/07/05 10:50:06;;;;;;;4.17;1.70;;;25.10;26.80;;;;;;5039789;28;20483;-72
2022/07/05 10:53:03;;;;;;;2.33;1.33;;;25.30;27.80;;;;;;5030762;28;20522;-72
2022/07/05 10:55:57;;;;;;;3.70;1.53;;;25.30;29.80;;;;;;5031435;28;20418;-72
2022/07/05 10:58:43;;;;;;;4.77;1.30;;;25.20;29.60;;;;;;5024949;28;20488;-72
2022/07/05 11:01:34;;;;;;;3.23;1.60;;;25.20;29.00;;;;;;5046477;28;20477;-71
2022/07/05 11:04:34;;;;;;;8.37;1.40;;;25.20;30.00;;;;;;5040375;28;20518;-72
2022/07/05 11:07:54;;;;;;;2.90;1.50;;;25.30;28.70;;;;;;5036361;28;20469;-72
2022/07/05 11:11:12;;;;;;;4.67;1.60;;;25.50;30.90;;;;;;5037930;28;20563;-72
2022/07/05 11:13:59;;;;;;;4.80;1.13;;;25.70;30.00;;;;;;5037658;28;20499;-72
2022/07/05 11:16:44;;;;;;;8.20;1.50;;;25.90;30.40;;;;;;5042387;28;20419;-72
2022/07/05 11:19:30;;;;;;;2.47;1.37;;;26.00;28.50;;;;;;5033923;28;20554;-72
2022/07/05 11:22:18;;;;;;;6.33;1.67;;;25.90;27.70;;;;;;5039618;28;20529;-72
2022/07/05 11:25:05;;;;;;;3.57;1.50;;;25.90;27.70;;;;;;5039359;28;20619;-72
2022/07/05 11:28:07;;;;;;;3.77;1.47;;;26.10;26.80;;;;;;5032306;28;20452;-72
2022/07/05 11:30:59;;;;;;;4.53;1.10;;;25.90;24.10;;;;;;5037148;28;20499;-71
2022/07/05 11:33:45;;;;;;;3.00;1.43;;;25.90;26.50;;;;;;5046674;22;20563;-69
2022/07/05 11:36:32;;;;;;;3.37;1.67;;;25.80;25.90;;;;;;5044049;28;20584;-69
2022/07/05 11:39:20;;;;;;;2.00;0.97;;;25.80;25.60;;;;;;5039447;28;20423;-70
2022/07/05 11:42:06;;;;;;;3.70;1.43;;;25.90;25.70;;;;;;5043830;28;20420;-70
2022/07/05 11:44:55;;;;;;;7.43;1.30;;;26.00;26.30;;;;;;5038070;28;20480;-71
2022/07/05 11:47:42;;;;;;;3.37;1.63;;;26.20;24.90;;;;;;5022094;28;20813;-70
2022/07/05 11:50:30;;;;;;;4.37;1.40;;;26.30;23.90;;;;;;5043789;28;20574;-69
2022/07/05 11:53:26;;;;;;;2.97;1.27;;;26.10;24.50;;;;;;5034372;28;20433;-70
2022/07/05 11:56:12;;;;;;;2.77;1.00;;;26.10;23.60;;;;;;5036426;28;20460;-70
2022/07/05 11:58:58;;;;;;;4.10;1.13;;;26.30;23.70;;;;;;5022605;28;20440;-69
2022/07/05 12:01:46;;;;;;;3.20;1.50;;;26.50;24.00;;;;;;5039294;28;20435;-69
2022/07/05 12:04:32;;;;;;;5.43;1.30;;;26.70;22.00;;;;;;5034559;28;20467;-69
2022/07/05 12:07:26;;;;;;;2.97;1.30;;;26.80;22.90;;;;;;5029722;28;20440;-69
2022/07/05 12:13:15;;;;;;;3.50;1.60;;;26.40;23.40;;;;;;5019477;28;20966;-70
2022/07/05 12:16:02;;;;;;;6.33;1.50;;;26.10;22.90;;;;;;5033068;28;20412;-70
2022/07/05 12:18:50;;;;;;;2.50;0.97;;;25.90;24.10;;;;;;5029092;28;20448;-70
2022/07/05 12:21:36;;;;;;;7.10;1.27;;;25.90;24.70;;;;;;5032837;28;20423;-70
2022/07/05 12:24:21;;;;;;;3.50;1.60;;;26.10;25.00;;;;;;5034134;28;20480;-70
2022/07/05 12:27:10;;;;;;;2.60;1.20;;;26.40;25.70;;;;;;5032364;28;20902;-70
2022/07/05 12:29:56;;;;;;;2.40;1.20;;;26.60;22.80;;;;;;5033298;28;21056;-70
2022/07/05 12:32:56;;;;;;;8.13;1.30;;;26.80;24.40;;;;;;5033275;28;20459;-70
2022/07/05 12:35:44;;;;;;;2.47;0.87;;;27.00;21.40;;;;;;5034942;28;20455;-69
2022/07/05 12:38:30;;;;;;;4.50;1.17;;;27.00;21.90;;;;;;5034583;28;20451;-69
2022/07/05 12:41:23;;;;;;;4.43;1.40;;;26.80;22.00;;;;;;5043812;28;20798;-70
2022/07/05 12:44:09;;;;;;;4.60;1.60;;;26.80;23.10;;;;;;5045898;28;20558;-69
2022/07/05 12:47:05;;;;;;;2.50;1.23;;;26.60;22.80;;;;;;5030891;28;20571;-70
2022/07/05 12:49:55;;;;;;;2.47;1.10;;;26.60;23.70;;;;;;5038299;28;20440;-70
2022/07/05 12:58:51;;;;;;;2.90;1.00;;;27.00;22.40;;;;;;5069592;28;20593;-70
2022/07/05 13:01:39;;;;;;;3.23;1.50;;;27.40;23.90;;;;;;5066315;28;20529;-70
2022/07/05 13:04:25;;;;;;;6.17;1.40;;;27.80;23.00;;;;;;5072755;28;20478;-70
2022/07/05 13:07:10;;;;;;;4.37;1.47;;;28.10;23.40;;;;;;5066780;28;20505;-72
2022/07/05 13:10:14;;;;;;;4.30;1.43;;;28.20;21.10;;;;;;5070608;28;20447;-70
2022/07/05 13:13:02;;;;;;;3.70;1.57;;;28.50;21.70;;;;;;5073083;28;20454;-71
2022/07/05 13:15:48;;;;;;;2.50;1.10;;;28.60;21.50;;;;;;5064312;28;20430;-71
2022/07/05 13:18:33;;;;;;;3.77;1.33;;;28.70;19.10;;;;;;5071377;28;20437;-71
2022/07/05 13:21:19;;;;;;;9.17;1.37;;;28.70;20.60;;;;;;5067651;28;20450;-70
2022/07/05 13:24:05;;;;;;;17.80;1.43;;;28.70;21.30;;;;;;5064787;28;20462;-71
2022/07/05 13:26:51;;;;;;;2.43;0.80;;;28.80;21.90;;;;;;5065978;28;20485;-71
2022/07/05 13:29:38;;;;;;;4.93;1.13;;;28.90;21.50;;;;;;5065681;28;20450;-71
2022/07/05 13:32:24;;;;;;;2.20;1.10;;;28.90;19.90;;;;;;5070161;28;20577;-71
2022/07/05 13:35:11;;;;;;;3.20;1.10;;;28.80;19.80;;;;;;5070088;28;20478;-71
2022/07/05 13:37:56;;;;;;;3.40;1.40;;;28.90;18.00;;;;;;5071415;28;20446;-71
2022/07/05 13:40:42;;;;;;;3.43;1.30;;;28.50;17.60;;;;;;5066493;28;20437;-72
2022/07/05 13:43:28;;;;;;;3.73;1.10;;;28.50;18.90;;;;;;5070199;28;20457;-70
2022/07/05 13:46:15;;;;;;;8.47;1.43;;;28.50;18.00;;;;;;5067578;28;20492;-70
2022/07/05 13:49:01;;;;;;;3.20;1.47;;;28.40;18.30;;;;;;5070319;28;20446;-71
2022/07/05 13:51:47;;;;;;;4.27;1.87;;;28.30;19.20;;;;;;5053679;28;20512;-71
2022/07/05 13:54:32;;;;;;;3.97;1.40;;;28.60;19.10;;;;;;5059603;28;20576;-71
2022/07/05 13:57:18;;;;;;;2.10;0.90;;;29.00;18.80;;;;;;5067152;28;21094;-71
2022/07/05 14:00:05;;;;;;;2.80;1.30;;;29.30;19.50;;;;;;5064388;28;20955;-71
2022/07/05 14:02:52;;;;;;;6.20;1.40;;;29.60;18.90;;;;;;5068335;28;20427;-71
2022/07/05 14:05:38;;;;;;;3.67;1.10;;;29.80;18.10;;;;;;5057055;28;20492;-72
2022/07/05 14:08:24;;;;;;;3.13;1.20;;;30.00;18.90;;;;;;5047338;28;20518;-71
2022/07/05 14:11:12;;;;;;;3.03;1.30;;;30.30;19.00;;;;;;5052771;28;20984;-72
2022/07/05 14:13:59;;;;;;;4.33;1.30;;;30.40;18.60;;;;;;5049337;28;20831;-72
2022/07/05 14:16:44;;;;;;;6.57;1.27;;;30.40;18.90;;;;;;5044235;28;20439;-72
2022/07/05 14:19:31;;;;;;;3.00;1.43;;;30.20;16.60;;;;;;5055439;28;21028;-71
2022/07/05 14:22:17;;;;;;;2.43;1.20;;;30.10;17.40;;;;;;5054794;28;20454;-71
2022/07/05 14:25:02;;;;;;;3.00;1.30;;;30.10;17.90;;;;;;5045178;28;20479;-72
2022/07/05 14:27:48;;;;;;;2.80;1.30;;;29.80;15.10;;;;;;5051802;28;20431;-72
2022/07/05 14:30:34;;;;;;;3.00;1.30;;;29.30;16.50;;;;;;5053459;28;20534;-71
2022/07/05 14:33:21;;;;;;;3.83;1.47;;;29.40;18.30;;;;;;5051279;28;20971;-72
2022/07/05 14:36:08;;;;;;;11.20;1.40;;;29.60;18.40;;;;;;5049869;28;20466;-71
2022/07/05 14:38:54;;;;;;;3.90;1.50;;;29.90;17.70;;;;;;5048716;28;20578;-72
2022/07/05 14:41:40;;;;;;;3.47;1.33;;;29.90;18.40;;;;;;5052048;28;20434;-71